createdAt,value
2022-10-30T00:00:41.526Z,16.08
2022-10-30T00:03:15.818Z,15.02
2022-10-30T00:05:44.067Z,16.40
2022-10-30T00:08:17.814Z,15.32
2022-10-30T00:10:45.571Z,15.70
2022-10-30T00:13:14.119Z,16.40
2022-10-30T00:15:47.732Z,16.00
2022-10-30T00:18:15.413Z,16.27
2022-10-30T00:20:42.238Z,15.80
2022-10-30T00:23:09.069Z,15.50
2022-10-30T00:25:36.750Z,16.58
2022-10-30T00:28:07.575Z,15.88
2022-10-30T00:30:35.637Z,16.48
2022-10-30T00:33:03.656Z,15.80
2022-10-30T00:35:31.483Z,15.40
2022-10-30T00:38:00.009Z,16.65
2022-10-30T00:40:27.085Z,15.88
2022-10-30T00:42:54.384Z,16.10
2022-10-30T00:45:21.430Z,15.52
2022-10-30T00:48:01.864Z,16.27
2022-10-30T00:50:34.866Z,16.33
2022-10-30T00:53:11.750Z,17.02
2022-10-30T00:55:45.169Z,16.83
2022-10-30T00:58:16.052Z,13.27
2022-10-30T01:00:49.523Z,14.85
2022-10-30T01:03:16.830Z,13.98
2022-10-30T01:05:48.273Z,16.45
2022-10-30T01:08:15.360Z,15.43
2022-10-30T01:10:42.593Z,14.48
2022-10-30T01:13:10.605Z,14.43
2022-10-30T01:15:50.330Z,15.68
2022-10-30T01:18:40.386Z,15.10
2022-10-30T01:21:33.917Z,13.93
2022-10-30T01:24:00.733Z,14.98
2022-10-30T01:26:46.703Z,14.48
2022-10-30T01:29:37.565Z,15.02
2022-10-30T01:32:11.919Z,12.77
2022-10-30T01:35:16.906Z,14.98
2022-10-30T01:38:02.457Z,14.40
2022-10-30T01:40:29.428Z,14.07
2022-10-30T01:42:57.665Z,15.30
2022-10-30T01:46:09.926Z,14.45
2022-10-30T01:48:53.053Z,13.50
2022-10-30T01:52:00.416Z,14.00
2022-10-30T01:54:41.046Z,13.68
2022-10-30T01:57:13.000Z,14.30
2022-10-30T01:59:48.591Z,15.52
2022-10-30T02:02:16.063Z,13.57
2022-10-30T02:04:44.181Z,14.02
2022-10-30T02:07:12.114Z,13.00
2022-10-30T02:09:40.367Z,15.82
2022-10-30T02:12:08.655Z,13.38
2022-10-30T02:14:43.473Z,14.52
2022-10-30T02:17:11.738Z,13.75
2022-10-30T02:19:38.735Z,13.38
2022-10-30T02:22:06.082Z,13.90
2022-10-30T02:24:33.065Z,14.23
2022-10-30T02:27:00.263Z,14.02
2022-10-30T02:29:27.333Z,13.55
2022-10-30T02:31:54.565Z,14.20
2022-10-30T02:34:21.565Z,13.18
2022-10-30T02:36:48.405Z,13.90
2022-10-30T02:39:15.252Z,13.98
2022-10-30T02:41:42.369Z,13.73
2022-10-30T02:44:09.199Z,13.23
2022-10-30T02:46:36.023Z,13.27
2022-10-30T02:49:02.973Z,13.07
2022-10-30T02:51:32.075Z,14.32
2022-10-30T02:54:00.283Z,12.73
2022-10-30T02:56:27.412Z,14.35
2022-10-30T02:58:55.939Z,13.30
2022-10-30T03:01:23.162Z,14.82
2022-10-30T03:03:50.070Z,13.38
2022-10-30T03:06:18.696Z,13.88
2022-10-30T03:08:45.763Z,13.80
2022-10-30T03:11:15.546Z,14.23
2022-10-30T03:13:43.930Z,13.27
2022-10-30T03:16:16.706Z,14.70
2022-10-30T03:18:43.619Z,14.38
2022-10-30T03:21:14.418Z,16.00
2022-10-30T03:23:41.276Z,14.75
2022-10-30T03:26:08.197Z,13.77
2022-10-30T03:28:35.423Z,14.77
2022-10-30T03:31:05.287Z,15.13
2022-10-30T03:33:32.652Z,14.18
2022-10-30T03:35:59.639Z,14.77
2022-10-30T03:38:26.732Z,15.17
2022-10-30T03:40:53.757Z,14.80
2022-10-30T03:43:21.256Z,14.55
2022-10-30T03:45:53.307Z,15.70
2022-10-30T03:48:21.336Z,15.57
2022-10-30T03:50:48.805Z,13.98
2022-10-30T03:53:15.794Z,15.77
2022-10-30T03:55:42.766Z,15.33
2022-10-30T03:58:10.546Z,15.40
2022-10-30T04:00:37.554Z,15.68
2022-10-30T04:03:08.483Z,14.88
2022-10-30T04:05:36.430Z,15.33
2022-10-30T04:08:07.446Z,14.93
2022-10-30T04:10:35.028Z,16.15
2022-10-30T04:13:04.560Z,15.77
2022-10-30T04:15:31.486Z,15.75
2022-10-30T04:17:58.910Z,15.60
2022-10-30T04:20:28.108Z,14.75
2022-10-30T04:22:59.876Z,14.60
2022-10-30T04:25:27.371Z,14.68
2022-10-30T04:27:54.433Z,14.80
2022-10-30T04:30:22.593Z,15.82
2022-10-30T04:32:50.787Z,16.50
2022-10-30T04:35:19.016Z,17.23
2022-10-30T04:37:59.825Z,16.23
2022-10-30T04:40:32.610Z,16.52
2022-10-30T04:43:00.634Z,16.00
2022-10-30T04:45:27.746Z,14.73
2022-10-30T04:48:04.802Z,15.45
2022-10-30T04:50:33.175Z,15.43
2022-10-30T04:53:06.460Z,17.27
2022-10-30T04:55:35.234Z,15.20
2022-10-30T04:58:03.134Z,16.05
2022-10-30T05:00:31.796Z,15.02
2022-10-30T05:03:00.737Z,16.23
2022-10-30T05:05:29.222Z,15.80
2022-10-30T05:07:56.571Z,15.38
2022-10-30T05:10:25.175Z,18.20
2022-10-30T05:12:54.435Z,17.23
2022-10-30T05:15:21.898Z,17.27
2022-10-30T05:17:53.029Z,16.70
2022-10-30T05:20:20.218Z,17.67
2022-10-30T05:22:53.625Z,16.50
2022-10-30T05:25:20.672Z,18.07
2022-10-30T05:27:47.730Z,17.73
2022-10-30T05:30:14.677Z,16.73
2022-10-30T05:32:41.438Z,17.53
2022-10-30T05:35:08.929Z,17.33
2022-10-30T05:37:36.026Z,17.87
2022-10-30T05:40:02.934Z,17.33
2022-10-30T05:42:29.780Z,19.38
2022-10-30T05:45:00.952Z,17.90
2022-10-30T05:47:28.837Z,16.98
2022-10-30T05:49:55.558Z,18.27
2022-10-30T05:52:22.420Z,16.83
2022-10-30T05:54:49.175Z,16.77
2022-10-30T05:57:15.966Z,17.77
2022-10-30T05:59:42.716Z,19.50
2022-10-30T06:02:09.505Z,16.83
2022-10-30T06:04:36.276Z,17.40
2022-10-30T06:07:03.074Z,16.23
2022-10-30T06:09:29.857Z,17.50
2022-10-30T06:11:56.774Z,18.23
2022-10-30T06:14:23.516Z,17.73
2022-10-30T06:16:50.261Z,17.83
2022-10-30T06:19:18.835Z,17.48
2022-10-30T06:21:46.729Z,20.30
2022-10-30T06:24:14.203Z,17.90
2022-10-30T06:26:41.373Z,18.53
2022-10-30T06:29:08.279Z,20.48
2022-10-30T06:31:35.116Z,20.92
2022-10-30T06:34:01.880Z,19.07
2022-10-30T06:36:28.602Z,20.65
2022-10-30T06:38:55.321Z,19.52
2022-10-30T06:41:26.133Z,19.30
2022-10-30T06:43:57.016Z,18.40
2022-10-30T06:46:27.004Z,20.90
2022-10-30T06:48:57.691Z,18.80
2022-10-30T06:51:24.802Z,20.03
2022-10-30T06:53:51.525Z,20.73
2022-10-30T06:56:18.283Z,19.67
2022-10-30T06:58:45.293Z,20.67
2022-10-30T07:01:12.129Z,21.00
2022-10-30T07:03:38.859Z,20.75
2022-10-30T07:06:05.906Z,19.73
2022-10-30T07:08:32.734Z,21.15
2022-10-30T07:10:59.609Z,19.98
2022-10-30T07:13:26.336Z,18.85
2022-10-30T07:15:53.129Z,19.85
2022-10-30T07:18:19.931Z,19.85
2022-10-30T07:20:46.771Z,18.27
2022-10-30T07:23:13.540Z,17.45
2022-10-30T07:25:40.275Z,17.20
2022-10-30T07:28:07.020Z,16.67
2022-10-30T07:30:33.774Z,15.40
2022-10-30T07:33:03.106Z,14.95
2022-10-30T07:35:31.171Z,14.80
2022-10-30T07:38:10.034Z,15.27
2022-10-30T07:40:36.917Z,14.30
2022-10-30T07:43:05.180Z,13.38
2022-10-30T07:45:32.802Z,12.75
2022-10-30T07:47:59.925Z,13.80
2022-10-30T07:50:27.502Z,12.90
2022-10-30T07:52:54.384Z,12.45
2022-10-30T07:55:21.169Z,12.52
2022-10-30T07:57:48.056Z,11.70
2022-10-30T08:00:15.457Z,12.18
2022-10-30T08:02:42.856Z,13.85
2022-10-30T08:05:11.139Z,12.52
2022-10-30T08:10:13.372Z,12.65
2022-10-30T08:12:41.920Z,11.23
2022-10-30T08:15:08.918Z,10.30
2022-10-30T08:17:42.960Z,10.65
2022-10-30T08:20:10.635Z,10.30
2022-10-30T08:22:51.264Z,10.32
2022-10-30T08:25:20.224Z,8.85
2022-10-30T08:28:01.728Z,9.10
2022-10-30T08:30:34.407Z,7.95
2022-10-30T08:33:04.161Z,8.88
2022-10-30T08:35:31.028Z,8.55
2022-10-30T08:38:00.997Z,7.28
2022-10-30T08:40:28.098Z,6.50
2022-10-30T08:42:56.599Z,7.00
2022-10-30T08:45:29.727Z,6.43
2022-10-30T08:47:59.891Z,7.03
2022-10-30T08:50:27.391Z,6.63
2022-10-30T08:52:54.861Z,6.15
2022-10-30T08:55:21.960Z,4.65
2022-10-30T08:57:49.357Z,4.80
2022-10-30T09:00:16.256Z,4.50
2022-10-30T09:02:43.325Z,5.47
2022-10-30T09:05:10.201Z,5.03
2022-10-30T09:07:36.936Z,4.45
2022-10-30T09:10:04.473Z,4.25
2022-10-30T09:12:31.292Z,4.32
2022-10-30T09:14:58.051Z,4.07
2022-10-30T09:17:24.874Z,3.80
2022-10-30T09:19:51.608Z,3.80
2022-10-30T09:22:18.459Z,4.25
2022-10-30T09:24:45.279Z,4.35
2022-10-30T09:27:12.149Z,3.67
2022-10-30T09:29:38.928Z,4.07
2022-10-30T09:32:10.148Z,3.65
2022-10-30T09:34:38.310Z,3.80
2022-10-30T09:37:05.256Z,3.42
2022-10-30T09:39:32.356Z,3.53
2022-10-30T09:42:19.075Z,3.35
2022-10-30T09:44:48.764Z,3.33
2022-10-30T09:47:35.155Z,3.10
2022-10-30T09:50:23.891Z,3.38
2022-10-30T09:53:31.734Z,3.60
2022-10-30T09:56:19.501Z,3.05
2022-10-30T09:59:13.613Z,3.30
2022-10-30T10:02:04.032Z,2.60
2022-10-30T10:04:41.415Z,3.05
2022-10-30T10:07:22.607Z,3.08
2022-10-30T10:09:54.217Z,2.60
2022-10-30T10:13:00.180Z,3.35
2022-10-30T10:15:51.724Z,3.08
2022-10-30T10:18:35.742Z,2.83
2022-10-30T10:21:15.862Z,3.42
2022-10-30T10:23:49.169Z,3.10
2022-10-30T10:26:47.746Z,3.30
2022-10-30T10:29:28.639Z,3.75
2022-10-30T10:32:13.181Z,13.77
2022-10-30T10:35:26.913Z,4.18
2022-10-30T10:38:23.378Z,3.53
2022-10-30T10:41:06.259Z,4.18
2022-10-30T10:44:03.744Z,3.90
2022-10-30T10:46:42.282Z,3.72
2022-10-30T10:49:39.135Z,3.85
2022-10-30T10:52:35.052Z,4.32
2022-10-30T10:55:06.741Z,4.40
2022-10-30T10:57:39.562Z,3.92
2022-10-30T11:00:25.578Z,3.70
2022-10-30T11:03:17.988Z,3.85
2022-10-30T11:06:32.712Z,3.55
2022-10-30T11:09:14.990Z,2.83
2022-10-30T11:11:43.058Z,4.28
2022-10-30T11:14:22.155Z,3.47
2022-10-30T11:17:15.949Z,3.35
2022-10-30T11:19:45.416Z,3.60
2022-10-30T11:22:34.323Z,3.20
2022-10-30T11:25:19.797Z,2.80
2022-10-30T11:27:59.007Z,3.13
2022-10-30T11:30:28.912Z,2.75
2022-10-30T11:32:57.325Z,3.65
2022-10-30T11:35:25.403Z,4.60
2022-10-30T11:38:13.872Z,3.03
2022-10-30T11:40:48.214Z,2.90
2022-10-30T11:43:20.151Z,3.30
2022-10-30T11:45:47.498Z,3.67
2022-10-30T11:48:29.817Z,4.35
2022-10-30T11:51:02.039Z,3.90
2022-10-30T11:53:35.232Z,3.67
2022-10-30T11:56:04.321Z,3.47
2022-10-30T11:58:37.413Z,2.55
2022-10-30T12:01:05.754Z,3.35
2022-10-30T12:03:40.819Z,2.90
2022-10-30T12:06:29.336Z,3.15
2022-10-30T12:09:11.020Z,2.97
2022-10-30T12:11:39.264Z,3.40
2022-10-30T12:14:06.562Z,3.35
2022-10-30T12:16:33.699Z,3.05
2022-10-30T12:19:06.717Z,3.72
2022-10-30T12:21:44.419Z,3.45
2022-10-30T12:24:30.364Z,4.78
2022-10-30T12:27:01.442Z,2.88
2022-10-30T12:33:04.558Z,6.80
2022-10-30T12:35:53.646Z,5.20
2022-10-30T12:38:48.037Z,3.65
2022-10-30T12:41:29.442Z,4.05
2022-10-30T12:43:59.033Z,3.67
2022-10-30T12:46:53.598Z,3.63
2022-10-30T12:49:26.366Z,3.45
2022-10-30T12:52:02.858Z,3.47
2022-10-30T12:54:51.997Z,3.10
2022-10-30T12:57:25.586Z,2.75
2022-10-30T13:00:02.528Z,2.40
2022-10-30T13:02:54.238Z,2.80
2022-10-30T13:05:40.149Z,2.60
2022-10-30T13:08:36.666Z,2.85
2022-10-30T13:11:12.295Z,2.53
2022-10-30T13:13:48.392Z,3.33
2022-10-30T13:16:26.579Z,3.15
2022-10-30T13:18:56.607Z,3.38
2022-10-30T13:22:13.284Z,4.18
2022-10-30T13:24:57.883Z,5.57
2022-10-30T13:27:38.823Z,4.40
2022-10-30T13:30:06.957Z,2.17
2022-10-30T13:32:54.453Z,2.88
2022-10-30T13:35:39.517Z,2.50
2022-10-30T13:38:32.447Z,1.90
2022-10-30T13:41:26.674Z,2.55
2022-10-30T13:44:08.655Z,2.22
2022-10-30T13:46:38.158Z,2.72
2022-10-30T13:49:27.187Z,3.38
2022-10-30T13:51:57.346Z,2.63
2022-10-30T13:54:40.897Z,2.10
2022-10-30T13:57:34.577Z,2.65
2022-10-30T14:00:15.429Z,2.33
2022-10-30T14:02:42.317Z,2.22
2022-10-30T14:05:15.404Z,2.38
2022-10-30T14:07:49.598Z,2.05
2022-10-30T14:10:24.647Z,2.05
2022-10-30T14:13:17.306Z,2.20
2022-10-30T14:15:46.440Z,2.22
2022-10-30T14:18:13.172Z,2.03
2022-10-30T14:20:49.193Z,2.20
2022-10-30T14:23:30.133Z,2.33
2022-10-30T14:26:03.146Z,2.55
2022-10-30T14:28:35.742Z,2.67
2022-10-30T14:31:20.143Z,2.83
2022-10-30T14:33:50.666Z,4.53
2022-10-30T14:36:38.911Z,3.72
2022-10-30T14:39:12.135Z,21.75
2022-10-30T14:42:00.994Z,67.30
2022-10-30T14:44:50.900Z,19.23
2022-10-30T14:47:52.534Z,7.95
2022-10-30T14:50:43.757Z,6.35
2022-10-30T14:53:33.393Z,4.85
2022-10-30T14:58:42.092Z,8.15
2022-10-30T15:01:24.152Z,7.72
2022-10-30T15:04:19.561Z,26.20
2022-10-30T15:07:22.689Z,17.10
2022-10-30T15:09:59.564Z,9.85
2022-10-30T15:12:37.707Z,9.73
2022-10-30T15:15:11.025Z,13.43
2022-10-30T15:17:41.430Z,12.65
2022-10-30T15:20:24.142Z,12.95
2022-10-30T15:22:57.609Z,13.95
2022-10-30T15:25:29.399Z,13.18
2022-10-30T15:27:58.007Z,12.25
2022-10-30T15:30:27.134Z,12.45
2022-10-30T15:32:54.390Z,22.13
2022-10-30T15:35:24.051Z,14.98
2022-10-30T15:38:10.070Z,12.38
2022-10-30T15:40:38.402Z,13.77
2022-10-30T15:43:10.506Z,13.70
2022-10-30T15:45:40.659Z,18.15
2022-10-30T15:48:07.396Z,17.27
2022-10-30T15:50:35.266Z,14.75
2022-10-30T15:53:02.572Z,16.90
2022-10-30T15:55:32.053Z,18.05
2022-10-30T15:58:04.614Z,14.35
2022-10-30T16:00:35.240Z,15.38
2022-10-30T16:03:16.818Z,17.05
2022-10-30T16:05:44.144Z,16.85
2022-10-30T16:08:22.502Z,18.08
2022-10-30T16:10:53.280Z,16.10
2022-10-30T16:13:25.355Z,15.50
2022-10-30T16:15:52.325Z,18.38
2022-10-30T16:18:23.716Z,16.30
2022-10-30T16:20:56.461Z,18.40
2022-10-30T16:23:24.393Z,18.83
2022-10-30T16:25:56.679Z,18.38
2022-10-30T16:28:32.280Z,16.67
2022-10-30T16:31:04.684Z,18.05
2022-10-30T16:33:33.553Z,18.38
2022-10-30T16:36:02.110Z,19.67
2022-10-30T16:38:37.373Z,19.43
2022-10-30T16:41:13.407Z,19.90
2022-10-30T16:44:04.146Z,20.03
2022-10-30T16:46:35.702Z,21.38
2022-10-30T16:49:08.252Z,24.60
2022-10-30T16:51:37.812Z,28.37
2022-10-30T16:54:04.765Z,31.03
2022-10-30T16:56:33.165Z,28.87
2022-10-30T16:59:13.467Z,30.70
2022-10-30T17:01:40.736Z,32.37
2022-10-30T17:06:44.597Z,32.30
2022-10-30T17:09:28.838Z,32.83
2022-10-30T17:12:21.566Z,33.87
2022-10-30T17:15:06.504Z,36.20
2022-10-30T17:17:41.136Z,38.60
2022-10-30T17:20:20.453Z,44.87
2022-10-30T17:23:03.494Z,46.20
2022-10-30T17:25:38.664Z,46.80
2022-10-30T17:28:06.554Z,44.97
2022-10-30T17:30:40.894Z,45.63
2022-10-30T17:33:36.193Z,45.77
2022-10-30T17:36:06.772Z,40.77
2022-10-30T17:38:33.659Z,37.47
2022-10-30T17:41:00.877Z,37.37
2022-10-30T17:43:34.076Z,46.70
2022-10-30T17:46:01.172Z,120.80
2022-10-30T17:48:29.436Z,220.83
2022-10-30T17:50:56.521Z,96.33
2022-10-30T17:53:25.272Z,53.00
2022-10-30T17:56:15.943Z,43.23
2022-10-30T17:58:42.711Z,39.60
2022-10-30T18:01:16.185Z,44.83
2022-10-30T18:03:42.990Z,43.40
2022-10-30T18:06:17.313Z,40.83
2022-10-30T18:08:47.860Z,37.50
2022-10-30T18:11:21.621Z,38.13
2022-10-30T18:13:49.968Z,40.03
2022-10-30T18:16:18.212Z,45.93
2022-10-30T18:18:45.543Z,46.77
2022-10-30T18:21:18.268Z,44.57
2022-10-30T18:23:53.695Z,40.37
2022-10-30T18:26:25.745Z,37.20
2022-10-30T18:28:53.144Z,35.80
2022-10-30T18:31:22.789Z,36.33
2022-10-30T18:33:50.291Z,37.27
2022-10-30T18:36:22.669Z,36.53
2022-10-30T18:38:49.760Z,38.03
2022-10-30T18:41:23.083Z,41.10
2022-10-30T18:43:50.597Z,67.73
2022-10-30T18:46:17.613Z,88.23
2022-10-30T18:48:45.597Z,91.43
2022-10-30T18:51:24.028Z,117.93
2022-10-30T18:53:51.918Z,88.63
2022-10-30T18:56:24.204Z,79.80
2022-10-30T18:58:55.007Z,82.23
2022-10-30T19:01:26.912Z,93.93
2022-10-30T19:03:53.778Z,86.70
2022-10-30T19:06:23.162Z,81.30
2022-10-30T19:08:50.039Z,74.90
2022-10-30T19:11:24.052Z,67.23
2022-10-30T19:13:52.925Z,63.50
2022-10-30T19:16:21.334Z,60.13
2022-10-30T19:18:48.755Z,58.10
2022-10-30T19:21:25.493Z,54.23
2022-10-30T19:23:54.138Z,55.60
2022-10-30T19:26:21.071Z,52.07
2022-10-30T19:28:47.908Z,50.43
2022-10-30T19:31:17.387Z,49.63
2022-10-30T19:33:45.023Z,50.40
2022-10-30T19:36:47.422Z,52.03
2022-10-30T19:39:17.888Z,55.13
2022-10-30T19:41:46.079Z,56.10
2022-10-30T19:44:12.900Z,56.70
2022-10-30T19:46:39.736Z,58.43
2022-10-30T19:49:18.695Z,52.70
2022-10-30T19:51:46.596Z,50.97
2022-10-30T19:54:13.739Z,51.20
2022-10-30T19:56:43.015Z,62.17
2022-10-30T19:59:11.707Z,112.47
2022-10-30T20:01:38.784Z,116.77
2022-10-30T20:04:05.704Z,107.70
2022-10-30T20:06:32.764Z,112.07
2022-10-30T20:09:02.476Z,101.53
2022-10-30T20:11:30.115Z,86.60
2022-10-30T20:13:56.833Z,79.03
2022-10-30T20:16:23.957Z,75.23
2022-10-30T20:18:50.993Z,75.10
2022-10-30T20:21:19.689Z,74.87
2022-10-30T20:23:46.905Z,74.50
2022-10-30T20:26:28.329Z,76.30
2022-10-30T20:28:56.098Z,78.07
2022-10-30T20:31:23.252Z,74.53
2022-10-30T20:33:51.096Z,76.37
2022-10-30T20:36:17.906Z,70.23
2022-10-30T20:38:44.868Z,76.13
2022-10-30T20:41:30.295Z,73.93
2022-10-30T20:43:57.269Z,74.47
2022-10-30T20:46:24.110Z,77.97
2022-10-30T20:48:50.965Z,77.43
2022-10-30T20:51:17.847Z,65.87
2022-10-30T20:53:44.730Z,61.77
2022-10-30T20:56:12.731Z,62.40
2022-10-30T20:58:40.110Z,60.83
2022-10-30T21:01:07.104Z,55.87
2022-10-30T21:03:34.247Z,52.80
2022-10-30T21:06:02.338Z,51.97
2022-10-30T21:08:33.907Z,47.00
2022-10-30T21:11:06.185Z,43.67
2022-10-30T21:13:36.669Z,43.00
2022-10-30T21:16:07.054Z,45.37
2022-10-30T21:18:34.015Z,50.40
2022-10-30T21:21:05.226Z,55.20
2022-10-30T21:23:32.200Z,54.30
2022-10-30T21:26:05.077Z,53.07
2022-10-30T21:28:32.077Z,50.93
2022-10-30T21:31:04.337Z,54.40
2022-10-30T21:33:35.126Z,53.50
2022-10-30T21:36:11.712Z,53.17
2022-10-30T21:38:42.104Z,52.70
2022-10-30T21:41:11.085Z,53.10
2022-10-30T21:43:37.981Z,51.77
2022-10-30T21:46:09.900Z,51.23
2022-10-30T21:48:37.214Z,56.57
2022-10-30T21:51:12.706Z,53.03
2022-10-30T21:53:40.270Z,54.17
2022-10-30T21:56:09.783Z,52.47
2022-10-30T21:58:39.043Z,52.73
2022-10-30T22:01:07.103Z,52.13
2022-10-30T22:03:34.236Z,53.47
2022-10-30T22:06:07.426Z,54.13
2022-10-30T22:08:35.075Z,46.60
2022-10-30T22:11:06.470Z,46.97
2022-10-30T22:13:34.138Z,50.80
2022-10-30T22:16:01.462Z,46.17
2022-10-30T22:18:28.928Z,45.13
2022-10-30T22:21:06.978Z,45.43
2022-10-30T22:23:35.570Z,43.57
2022-10-30T22:26:05.144Z,49.10
2022-10-30T22:28:33.474Z,48.17
2022-10-30T22:31:05.905Z,48.73
2022-10-30T22:33:33.398Z,50.87
2022-10-30T22:36:09.092Z,50.63
2022-10-30T22:38:36.138Z,51.27
2022-10-30T22:41:18.135Z,55.93
2022-10-30T22:43:46.770Z,51.80
2022-10-30T22:46:15.668Z,52.53
2022-10-30T22:48:43.037Z,49.70
2022-10-30T22:51:15.161Z,46.27
2022-10-30T22:53:45.688Z,46.27
2022-10-30T22:56:21.209Z,47.53
2022-10-30T22:58:49.614Z,43.17
2022-10-30T23:01:25.394Z,43.47
2022-10-30T23:03:54.730Z,42.60
2022-10-30T23:06:22.040Z,42.53
2022-10-30T23:08:51.336Z,41.50
2022-10-30T23:11:18.142Z,37.10
2022-10-30T23:13:47.922Z,38.53
2022-10-30T23:16:17.473Z,40.17
2022-10-30T23:18:45.117Z,38.77
2022-10-30T23:21:15.821Z,38.97
2022-10-30T23:23:43.574Z,37.10
2022-10-30T23:26:26.177Z,38.43
2022-10-30T23:28:54.988Z,34.27
2022-10-30T23:31:36.594Z,34.73
2022-10-30T23:34:06.790Z,31.47
2022-10-30T23:36:34.646Z,32.80
2022-10-30T23:39:03.438Z,33.00
2022-10-30T23:41:32.478Z,29.43
2022-10-30T23:44:01.656Z,29.53
2022-10-30T23:46:29.001Z,27.70
2022-10-30T23:48:56.450Z,28.63
2022-10-30T23:51:23.731Z,26.83
2022-10-30T23:53:52.151Z,25.73
2022-10-30T23:56:19.389Z,27.00
2022-10-30T23:58:48.150Z,28.27
